createdAt,value
2022-08-16T00:02:12.808Z,100313.81
2022-08-16T00:04:40.450Z,100320.28
2022-08-16T00:07:07.550Z,100306.16
2022-08-16T00:09:36.577Z,100325.13
2022-08-16T00:12:05.393Z,100306.16
2022-08-16T00:14:34.453Z,100310.59
2022-08-16T00:17:18.329Z,100303.72
2022-08-16T00:19:49.763Z,100308.59
2022-08-16T00:22:24.912Z,100302.94
2022-08-16T00:24:54.866Z,100307.78
2022-08-16T00:27:22.090Z,100317.06
2022-08-16T00:30:00.630Z,100307.78
2022-08-16T00:32:36.924Z,100309.81
2022-08-16T00:35:13.301Z,100306.97
2022-08-16T00:37:57.567Z,100307.00
2022-08-16T00:40:36.626Z,100314.66
2022-08-16T00:43:19.104Z,100313.06
2022-08-16T00:45:58.350Z,100307.41
2022-08-16T00:48:30.937Z,100306.59
2022-08-16T00:50:59.813Z,100304.97
2022-08-16T00:53:26.888Z,100299.31
2022-08-16T00:56:05.281Z,100303.00
2022-08-16T00:58:35.337Z,100290.88
2022-08-16T01:01:03.229Z,100292.88
2022-08-16T01:03:41.695Z,100295.69
2022-08-16T01:06:40.650Z,100286.84
2022-08-16T01:09:00.085Z,100298.53
2022-08-16T01:11:29.678Z,100291.28
2022-08-16T01:14:02.256Z,100297.34
2022-08-16T01:16:34.297Z,100290.06
2022-08-16T01:19:07.407Z,100300.53
2022-08-16T01:21:44.216Z,100296.09
2022-08-16T01:24:51.775Z,100292.03
2022-08-16T01:27:15.135Z,100293.66
2022-08-16T01:29:56.792Z,100299.72
2022-08-16T01:32:33.708Z,100288.00
2022-08-16T01:35:08.420Z,100291.63
2022-08-16T01:37:53.949Z,100297.69
2022-08-16T01:40:25.588Z,100290.41
2022-08-16T01:42:58.197Z,100292.03
2022-08-16T01:45:39.562Z,100295.28
2022-08-16T01:48:20.103Z,100289.63
2022-08-16T01:51:08.927Z,100296.09
2022-08-16T01:53:40.741Z,100304.97
2022-08-16T01:56:22.080Z,100298.47
2022-08-16T01:58:54.868Z,100296.47
2022-08-16T02:01:26.027Z,100302.53
2022-08-16T02:03:53.460Z,100300.91
2022-08-16T02:06:34.252Z,100307.38
2022-08-16T02:09:05.133Z,100306.16
2022-08-16T02:11:47.584Z,100307.38
2022-08-16T02:14:21.569Z,100298.50
2022-08-16T02:16:48.859Z,100292.41
2022-08-16T02:19:18.597Z,100299.69
2022-08-16T02:22:09.170Z,100315.44
2022-08-16T02:24:42.367Z,100312.22
2022-08-16T02:27:15.390Z,100309.78
2022-08-16T02:29:49.440Z,100302.91
2022-08-16T02:32:50.007Z,100295.63
2022-08-16T02:35:18.768Z,100298.06
2022-08-16T02:37:52.540Z,100291.22
2022-08-16T02:40:22.438Z,100304.91
2022-08-16T02:42:52.030Z,100304.91
2022-08-16T02:45:20.676Z,100306.94
2022-08-16T02:48:00.174Z,100313.00
2022-08-16T02:50:55.159Z,100302.50
2022-08-16T02:53:26.421Z,100309.38
2022-08-16T02:55:54.105Z,100302.09
2022-08-16T02:58:25.822Z,100295.63
2022-08-16T03:00:56.001Z,100289.19
2022-08-16T03:03:23.542Z,100295.25
2022-08-16T03:05:52.598Z,100295.25
2022-08-16T03:08:51.238Z,100304.94
2022-08-16T03:11:16.629Z,100312.59
2022-08-16T03:13:48.143Z,100304.94
2022-08-16T03:16:37.792Z,100309.38
2022-08-16T03:19:07.641Z,100323.09
2022-08-16T03:21:37.981Z,100330.78
2022-08-16T03:24:29.038Z,100311.41
2022-08-16T03:26:53.633Z,100305.75
2022-08-16T03:29:30.163Z,100294.47
2022-08-16T03:31:59.217Z,100291.25
2022-08-16T03:34:26.600Z,100291.66
2022-08-16T03:36:53.904Z,100296.50
2022-08-16T03:39:20.999Z,100303.34
2022-08-16T03:41:50.313Z,100305.38
2022-08-16T03:44:43.466Z,100298.09
2022-08-16T03:47:10.287Z,100315.47
2022-08-16T03:49:37.620Z,100300.91
2022-08-16T03:52:06.028Z,100296.91
2022-08-16T03:54:32.902Z,100294.47
2022-08-16T03:57:02.953Z,100300.91
2022-08-16T03:59:32.436Z,100309.84
2022-08-16T04:02:01.163Z,100304.56
2022-08-16T04:04:33.414Z,100307.78
2022-08-16T04:07:02.749Z,100303.75
2022-08-16T04:09:35.605Z,100306.56
2022-08-16T04:12:03.393Z,100301.72
2022-08-16T04:14:38.169Z,100310.59
2022-08-16T04:17:15.634Z,100308.19
2022-08-16T04:19:46.901Z,100308.97
2022-08-16T04:22:17.197Z,100317.06
2022-08-16T04:24:55.102Z,100321.06
2022-08-16T04:27:24.453Z,100305.34
2022-08-16T04:29:52.364Z,100313.81
2022-08-16T04:32:19.769Z,100313.81
2022-08-16T04:34:50.785Z,100312.22
2022-08-16T04:37:18.591Z,100309.78
2022-08-16T04:39:57.404Z,100315.44
2022-08-16T04:42:25.871Z,100330.78
2022-08-16T04:44:56.029Z,100323.94
2022-08-16T04:47:31.501Z,100332.41
2022-08-16T04:50:01.464Z,100333.19
2022-08-16T04:52:33.990Z,100343.31
2022-08-16T04:55:07.938Z,100338.44
2022-08-16T04:57:35.814Z,100341.25
2022-08-16T05:00:32.657Z,100336.38
2022-08-16T05:02:55.638Z,100340.44
2022-08-16T05:05:24.633Z,100344.84
2022-08-16T05:07:58.430Z,100342.06
2022-08-16T05:10:27.958Z,100342.06
2022-08-16T05:12:55.051Z,100346.09
2022-08-16T05:15:23.641Z,100347.75
2022-08-16T05:17:58.674Z,100350.97
2022-08-16T05:20:39.403Z,100342.50
2022-08-16T05:23:15.030Z,100354.22
2022-08-16T05:25:47.852Z,100354.66
2022-08-16T05:28:15.885Z,100359.09
2022-08-16T05:30:43.215Z,100363.56
2022-08-16T05:33:16.937Z,100362.34
2022-08-16T05:35:46.938Z,100369.19
2022-08-16T05:38:40.041Z,100382.13
2022-08-16T05:41:07.503Z,100384.13
2022-08-16T05:43:43.796Z,100372.03
2022-08-16T05:46:28.966Z,100381.31
2022-08-16T05:49:03.137Z,100377.63
2022-08-16T05:51:37.653Z,100383.09
2022-08-16T05:54:06.697Z,100391.38
2022-08-16T05:56:35.930Z,100391.81
2022-08-16T05:59:06.119Z,100399.34
2022-08-16T06:01:38.237Z,100385.16
2022-08-16T06:04:13.104Z,100396.47
2022-08-16T06:06:55.835Z,100411.81
2022-08-16T06:09:23.555Z,100403.38
2022-08-16T06:11:51.081Z,100400.09
2022-08-16T06:14:18.571Z,100414.19
2022-08-16T06:16:50.996Z,100412.19
2022-08-16T06:19:18.027Z,100422.22
2022-08-16T06:21:45.367Z,100421.06
2022-08-16T06:24:53.283Z,100411.44
2022-08-16T06:27:10.237Z,100405.47
2022-08-16T06:29:37.083Z,100405.38
2022-08-16T06:32:04.926Z,100410.19
2022-08-16T06:34:57.292Z,100404.94
2022-08-16T06:37:21.338Z,100398.06
2022-08-16T06:39:50.447Z,100408.13
2022-08-16T06:42:18.284Z,100414.50
2022-08-16T06:44:46.886Z,100407.88
2022-08-16T06:47:17.024Z,100399.28
2022-08-16T06:49:52.908Z,100415.22
2022-08-16T06:52:57.649Z,100414.38
2022-08-16T06:55:12.806Z,100420.22
2022-08-16T06:57:40.812Z,100416.19
2022-08-16T07:00:24.092Z,100428.41
2022-08-16T07:02:53.812Z,100428.88
2022-08-16T07:05:27.394Z,100433.38
2022-08-16T07:08:11.422Z,100435.94
2022-08-16T07:10:41.551Z,100429.81
2022-08-16T07:13:11.601Z,100429.03
2022-08-16T07:15:50.751Z,100417.28
2022-08-16T07:18:24.373Z,100414.97
2022-08-16T07:20:53.866Z,100415.06
2022-08-16T07:23:21.409Z,100410.25
2022-08-16T07:26:29.445Z,100437.28
2022-08-16T07:29:09.623Z,100430.75
2022-08-16T07:31:37.525Z,100442.41
2022-08-16T08:50:50.394Z,100522.09
2022-08-16T08:53:17.899Z,100519.22
2022-08-16T08:55:45.146Z,100528.72
2022-08-16T08:58:13.189Z,100525.28
2022-08-16T09:00:51.444Z,100518.56
2022-08-16T09:26:59.432Z,100559.22
2022-08-16T09:29:45.348Z,100553.03
2022-08-16T09:32:13.209Z,100558.47
2022-08-16T09:41:53.546Z,100551.25
2022-08-16T09:45:18.447Z,100552.66
2022-08-16T09:56:58.605Z,100563.41
2022-08-16T09:59:45.803Z,100555.22
2022-08-16T10:02:26.846Z,100560.03
2022-08-16T10:04:55.466Z,100562.53
2022-08-16T10:07:23.080Z,100560.84
2022-08-16T10:09:55.003Z,100551.22
2022-08-16T10:12:42.516Z,100557.31
2022-08-16T10:15:15.582Z,100559.72
2022-08-16T10:17:45.764Z,100570.06
2022-08-16T10:20:31.393Z,100560.50
2022-08-16T10:23:05.505Z,100561.94
2022-08-16T10:27:03.678Z,100567.88
2022-08-16T10:28:42.245Z,100554.22
2022-08-16T10:31:16.752Z,100560.72
2022-08-16T10:34:30.735Z,100567.72
2022-08-16T10:37:00.132Z,100559.75
2022-08-16T10:39:27.416Z,100548.75
2022-08-16T10:42:08.385Z,100555.06
2022-08-16T10:44:35.384Z,100576.06
2022-08-16T10:47:04.234Z,100559.53
2022-08-16T10:50:26.652Z,100570.91
2022-08-16T10:52:58.684Z,100560.03
2022-08-16T10:55:45.403Z,100563.88
2022-08-16T10:58:16.906Z,100575.31
2022-08-16T11:00:46.877Z,100577.34
2022-08-16T11:06:05.909Z,100586.44
2022-08-16T11:08:39.626Z,100573.59
2022-08-16T11:11:19.675Z,100578.66
2022-08-16T11:14:10.830Z,100576.09
2022-08-16T11:19:33.618Z,100578.34
2022-08-16T11:22:38.913Z,100582.34
2022-08-16T11:26:03.897Z,100576.53
2022-08-16T11:28:04.961Z,100579.75
2022-08-16T11:30:39.203Z,100579.38
2022-08-16T11:33:06.867Z,100585.47
2022-08-16T11:38:51.457Z,100579.72
2022-08-16T11:41:11.296Z,100600.97
2022-08-16T11:43:41.672Z,100593.66
2022-08-16T11:46:44.339Z,100591.69
2022-08-16T11:49:11.212Z,100605.56
2022-08-16T11:51:44.125Z,100606.13
2022-08-16T11:54:20.205Z,100605.78
2022-08-16T11:56:52.901Z,100605.47
2022-08-16T12:12:14.904Z,100611.22
2022-08-16T12:14:45.822Z,100604.41
2022-08-16T12:17:14.337Z,100603.06
2022-08-16T12:19:41.556Z,100600.03
2022-08-16T12:22:19.188Z,100606.50
2022-08-16T12:24:50.915Z,100608.84
2022-08-16T12:27:23.199Z,100605.97
2022-08-16T12:29:51.665Z,100603.75
2022-08-16T12:32:35.977Z,100604.25
2022-08-16T12:35:09.551Z,100602.31
2022-08-16T12:37:36.980Z,100591.22
2022-08-16T12:40:21.249Z,100587.88
2022-08-16T12:43:00.682Z,100586.97
2022-08-16T12:45:31.043Z,100594.28
2022-08-16T12:48:33.585Z,100592.44
2022-08-16T12:51:13.553Z,100587.03
2022-08-16T12:53:48.038Z,100585.19
2022-08-16T12:56:18.897Z,100581.78
2022-08-16T12:58:51.529Z,100586.44
2022-08-16T13:31:27.296Z,100573.56
2022-08-16T13:33:58.784Z,100576.94
2022-08-16T13:36:48.779Z,100573.38
2022-08-16T13:39:17.235Z,100568.91
2022-08-16T13:41:44.699Z,100566.44
2022-08-16T13:44:21.908Z,100572.38
2022-08-16T13:47:12.824Z,100573.88
2022-08-16T13:49:41.371Z,100583.81
2022-08-16T13:52:13.300Z,100567.59
2022-08-16T13:54:40.530Z,100571.47
2022-08-16T13:57:07.618Z,100561.25
2022-08-16T13:59:38.786Z,100552.22
2022-08-16T14:02:08.841Z,100559.16
2022-08-16T14:04:41.101Z,100548.88
2022-08-16T14:07:12.671Z,100557.59
2022-08-16T14:09:47.982Z,100563.00
2022-08-16T14:12:21.160Z,100553.22
2022-08-16T14:14:48.982Z,100560.91
2022-08-16T14:17:21.451Z,100559.56
2022-08-16T14:19:50.546Z,100558.44
2022-08-16T14:22:30.671Z,100567.44
2022-08-16T14:24:59.844Z,100581.97
2022-08-16T14:27:28.967Z,100577.06
2022-08-16T14:30:01.180Z,100566.91
2022-08-16T14:32:36.773Z,100576.63
2022-08-16T14:35:11.529Z,100578.06
2022-08-16T14:37:43.114Z,100577.53
2022-08-16T14:40:20.380Z,100584.47
2022-08-16T14:42:48.870Z,100599.97
2022-08-16T14:45:20.628Z,100621.06
2022-08-16T14:47:50.846Z,100608.31
2022-08-16T14:50:21.344Z,100612.38
2022-08-16T14:52:56.417Z,100629.34
2022-08-16T14:55:26.035Z,100624.63
2022-08-16T14:57:54.468Z,100630.59
2022-08-16T15:00:32.708Z,100630.09
2022-08-16T15:03:04.623Z,100627.69
2022-08-16T15:05:32.546Z,100638.69
2022-08-16T15:07:59.675Z,100645.22
2022-08-16T15:10:29.490Z,100645.88
2022-08-16T15:13:01.103Z,100658.66
2022-08-16T15:15:30.176Z,100668.06
2022-08-16T15:17:57.589Z,100670.63
2022-08-16T15:20:29.509Z,100673.50
2022-08-16T15:22:59.042Z,100677.19
2022-08-16T15:25:29.616Z,100694.72
2022-08-16T15:27:57.380Z,100679.66
2022-08-16T15:30:57.925Z,100665.47
2022-08-16T15:33:15.381Z,100670.69
2022-08-16T15:35:44.998Z,100671.19
2022-08-16T15:38:57.353Z,100656.31
2022-08-16T15:41:01.535Z,100634.38
2022-08-16T15:43:39.483Z,100638.38
2022-08-16T15:46:35.183Z,100624.81
2022-08-16T15:49:10.244Z,100615.63
2022-08-16T15:51:41.394Z,100617.94
2022-08-16T15:54:21.314Z,100635.00
2022-08-16T15:57:00.340Z,100629.34
2022-08-16T15:59:48.051Z,100629.00
2022-08-16T16:02:16.791Z,100637.84
2022-08-16T16:04:51.583Z,100638.41
2022-08-16T16:07:22.198Z,100641.13
2022-08-16T16:09:49.124Z,100632.31
2022-08-16T16:12:50.566Z,100625.84
2022-08-16T16:15:07.395Z,100607.56
2022-08-16T16:30:33.114Z,100602.38
2022-08-16T16:33:22.252Z,100608.41
2022-08-16T16:35:56.607Z,100601.69
2022-08-16T16:38:28.864Z,100597.25
2022-08-16T16:40:56.233Z,100597.16
2022-08-16T16:43:25.989Z,100591.50
2022-08-16T16:46:01.691Z,100588.09
2022-08-16T16:48:35.075Z,100582.28
2022-08-16T16:51:05.100Z,100581.22
2022-08-16T16:53:55.736Z,100584.66
2022-08-16T16:56:27.536Z,100585.06
2022-08-16T16:59:01.709Z,100586.09
2022-08-16T17:01:56.659Z,100581.84
2022-08-16T17:04:27.329Z,100574.50
2022-08-16T17:06:59.165Z,100571.31
2022-08-16T17:09:26.282Z,100570.31
2022-08-16T17:11:55.377Z,100564.06
2022-08-16T17:14:33.743Z,100561.50
2022-08-16T17:17:05.102Z,100558.22
2022-08-16T17:19:32.160Z,100563.22
2022-08-16T17:21:59.427Z,100568.53
2022-08-16T17:24:39.502Z,100562.22
2022-08-16T17:27:07.949Z,100553.97
2022-08-16T17:33:59.711Z,100555.84
